createdAt,value
2019-05-09T00:00:53.391Z,62.00
2019-05-09T00:03:24.100Z,61.80
2019-05-09T00:05:54.219Z,62.20
2019-05-09T00:08:23.199Z,62.50
2019-05-09T00:10:53.457Z,62.40
2019-05-09T00:13:23.737Z,62.80
2019-05-09T00:15:54.171Z,63.60
2019-05-09T00:18:23.280Z,63.90
2019-05-09T00:20:56.890Z,65.10
2019-05-09T00:23:25.472Z,65.00
2019-05-09T00:25:54.028Z,67.00
2019-05-09T00:28:24.475Z,67.30
2019-05-09T00:30:54.686Z,68.40
2019-05-09T00:33:27.621Z,68.40
2019-05-09T00:35:56.205Z,70.70
2019-05-09T00:38:26.484Z,71.80
2019-05-09T00:40:58.749Z,73.80
2019-05-09T00:43:25.325Z,72.10
2019-05-09T00:46:03.809Z,74.60
2019-05-09T00:48:35.862Z,74.30
2019-05-09T00:51:04.423Z,76.30
2019-05-09T00:53:33.893Z,77.20
2019-05-09T00:56:04.258Z,78.30
2019-05-09T00:58:33.549Z,78.30
2019-05-09T01:01:04.366Z,78.40
2019-05-09T01:03:33.938Z,79.90
2019-05-09T01:06:04.028Z,82.10
2019-05-09T01:08:33.711Z,80.60
2019-05-09T01:11:11.798Z,82.20
2019-05-09T01:13:34.190Z,82.80
2019-05-09T01:16:04.481Z,82.60
2019-05-09T01:18:34.909Z,82.60
2019-05-09T01:21:04.223Z,83.10
2019-05-09T01:23:34.288Z,84.20
2019-05-09T01:26:04.210Z,84.40
2019-05-09T01:28:33.935Z,83.80
2019-05-09T01:31:04.149Z,85.10
2019-05-09T01:33:34.726Z,85.00
2019-05-09T01:36:03.874Z,85.50
2019-05-09T01:38:33.932Z,86.60
2019-05-09T01:41:04.071Z,86.30
2019-05-09T01:43:33.724Z,86.50
2019-05-09T01:46:03.700Z,86.60
2019-05-09T01:48:34.138Z,88.00
2019-05-09T01:51:03.450Z,87.20
2019-05-09T01:53:34.434Z,87.90
2019-05-09T01:56:03.857Z,87.40
2019-05-09T01:58:34.581Z,87.60
2019-05-09T02:01:06.525Z,87.90
2019-05-09T02:03:35.151Z,89.30
2019-05-09T02:06:04.775Z,88.20
2019-05-09T02:08:34.394Z,88.90
2019-05-09T02:11:03.945Z,88.00
2019-05-09T02:13:33.839Z,87.50
2019-05-09T02:16:07.240Z,88.70
2019-05-09T02:18:37.518Z,88.00
2019-05-09T02:21:06.103Z,87.80
2019-05-09T02:23:34.693Z,88.40
2019-05-09T02:26:03.962Z,88.20
2019-05-09T02:28:34.151Z,88.60
2019-05-09T02:31:05.243Z,89.20
2019-05-09T02:33:34.721Z,89.60
2019-05-09T02:36:03.446Z,89.30
2019-05-09T02:38:32.000Z,89.20
2019-05-09T02:41:01.032Z,89.40
2019-05-09T02:43:29.593Z,90.20
2019-05-09T02:45:59.913Z,90.70
2019-05-09T02:48:28.984Z,90.50
2019-05-09T02:51:00.131Z,90.50
2019-05-09T02:53:28.913Z,90.50
2019-05-09T02:55:58.661Z,90.70
2019-05-09T02:58:29.116Z,91.00
2019-05-09T03:00:59.836Z,90.80
2019-05-09T03:03:30.189Z,90.90
2019-05-09T03:05:59.691Z,91.20
2019-05-09T03:08:29.588Z,91.20
2019-05-09T03:10:59.355Z,91.20
2019-05-09T03:13:29.071Z,91.40
2019-05-09T03:16:00.362Z,91.40
2019-05-09T03:18:28.990Z,91.70
2019-05-09T03:21:02.026Z,91.60
2019-05-09T03:23:30.594Z,91.50
2019-05-09T03:25:59.275Z,91.90
2019-05-09T03:28:29.831Z,91.90
2019-05-09T03:31:00.043Z,91.90
2019-05-09T03:33:30.811Z,92.00
2019-05-09T03:35:59.037Z,91.90
2019-05-09T03:38:28.414Z,92.00
2019-05-09T03:40:58.015Z,92.00
2019-05-09T03:43:27.516Z,92.10
2019-05-09T03:46:01.383Z,92.10
2019-05-09T03:48:37.496Z,92.10
2019-05-09T03:51:08.090Z,92.30
2019-05-09T03:53:37.992Z,92.00
2019-05-09T03:56:08.748Z,92.00
2019-05-09T03:58:38.637Z,92.00
2019-05-09T04:01:10.350Z,92.20
2019-05-09T04:03:37.940Z,92.30
2019-05-09T04:06:08.249Z,92.10
2019-05-09T04:08:37.648Z,92.40
2019-05-09T04:11:08.585Z,92.30
2019-05-09T04:13:38.595Z,92.10
2019-05-09T04:16:07.591Z,92.50
2019-05-09T04:18:37.708Z,91.70
2019-05-09T04:21:08.386Z,92.10
2019-05-09T04:23:37.910Z,92.20
2019-05-09T04:26:27.664Z,92.20
2019-05-09T04:28:57.817Z,92.20
2019-05-09T04:31:28.049Z,92.20
2019-05-09T04:33:57.442Z,92.30
2019-05-09T04:36:41.159Z,92.20
2019-05-09T04:39:20.955Z,92.10
2019-05-09T04:41:44.959Z,92.10
2019-05-09T04:44:19.213Z,91.90
2019-05-09T04:46:45.462Z,91.80
2019-05-09T04:49:14.018Z,91.60
2019-05-09T04:51:42.614Z,91.70
2019-05-09T04:54:11.176Z,91.50
2019-05-09T04:56:41.360Z,91.70
2019-05-09T04:59:09.955Z,91.90
2019-05-09T05:01:43.136Z,92.00
2019-05-09T05:04:11.774Z,91.50
2019-05-09T05:06:40.632Z,91.40
2019-05-09T05:09:10.213Z,91.70
2019-05-09T05:11:38.755Z,91.70
2019-05-09T05:14:09.420Z,91.90
2019-05-09T05:16:39.313Z,91.50
2019-05-09T05:19:08.364Z,91.50
2019-05-09T05:21:37.774Z,91.90
2019-05-09T05:24:08.538Z,91.80
2019-05-09T05:26:38.051Z,91.80
2019-05-09T05:29:08.423Z,91.80
2019-05-09T05:31:38.810Z,91.70
2019-05-09T05:34:18.357Z,91.60
2019-05-09T05:36:47.692Z,91.80
2019-05-09T05:39:17.879Z,92.10
2019-05-09T05:41:48.397Z,91.70
2019-05-09T05:44:17.780Z,92.10
2019-05-09T05:46:54.199Z,91.80
2019-05-09T05:49:22.778Z,91.60
2019-05-09T05:51:51.315Z,91.90
2019-05-09T05:54:21.841Z,91.90
2019-05-09T05:56:50.442Z,91.70
2019-05-09T05:59:19.466Z,91.60
2019-05-09T06:02:21.375Z,91.50
2019-05-09T06:10:50.853Z,91.80
2019-05-09T06:14:18.321Z,91.80
2019-05-09T06:21:18.931Z,91.70
2019-05-09T06:30:50.353Z,92.20
2019-05-09T06:48:53.176Z,92.10
2019-05-09T06:51:21.726Z,92.00
2019-05-09T06:53:50.288Z,91.90
2019-05-09T06:56:18.851Z,92.00
2019-05-09T06:58:50.338Z,92.40
2019-05-09T07:01:23.349Z,92.10
2019-05-09T07:03:59.354Z,92.40
2019-05-09T07:06:48.291Z,92.20
2019-05-09T07:09:18.859Z,92.00
2019-05-09T07:11:48.590Z,92.20
2019-05-09T07:14:29.002Z,92.30
2019-05-09T07:16:52.325Z,92.20
2019-05-09T07:19:20.879Z,91.90
2019-05-09T07:22:02.992Z,92.50
2019-05-09T07:24:33.255Z,92.00
2019-05-09T07:27:01.790Z,91.80
2019-05-09T07:29:31.995Z,91.90
2019-05-09T07:32:02.188Z,92.30
2019-05-09T07:34:32.414Z,92.30
2019-05-09T07:37:00.966Z,92.00
2019-05-09T07:39:29.561Z,92.30
2019-05-09T07:41:58.517Z,92.20
2019-05-09T07:44:33.187Z,92.50
2019-05-09T07:47:01.878Z,91.80
2019-05-09T07:49:30.919Z,91.90
2019-05-09T07:52:06.129Z,92.40
2019-05-09T07:54:29.739Z,91.90
2019-05-09T07:56:58.314Z,91.90
2019-05-09T07:59:27.564Z,92.10
2019-05-09T08:01:58.161Z,92.40
2019-05-09T08:04:28.598Z,92.30
2019-05-09T08:06:57.715Z,91.90
2019-05-09T08:09:28.075Z,91.50
2019-05-09T08:11:58.748Z,91.80
2019-05-09T08:14:28.097Z,91.20
2019-05-09T08:16:58.068Z,91.00
2019-05-09T08:19:27.561Z,91.10
2019-05-09T08:21:57.591Z,91.50
2019-05-09T08:24:27.846Z,91.10
2019-05-09T08:26:58.021Z,90.40
2019-05-09T08:29:28.235Z,91.20
2019-05-09T08:31:58.229Z,91.20
2019-05-09T08:34:28.460Z,91.10
2019-05-09T08:36:58.171Z,90.70
2019-05-09T08:39:27.715Z,91.70
2019-05-09T08:41:58.963Z,91.30
2019-05-09T08:44:30.406Z,90.90
2019-05-09T08:46:57.459Z,91.70
2019-05-09T08:49:28.653Z,90.50
2019-05-09T08:52:10.089Z,90.80
2019-05-09T08:54:31.180Z,90.90
2019-05-09T08:56:59.800Z,91.20
2019-05-09T08:59:28.345Z,90.70
2019-05-09T09:02:12.327Z,91.40
2019-05-09T09:04:29.393Z,90.70
2019-05-09T09:06:57.770Z,91.00
2019-05-09T09:09:28.606Z,91.30
2019-05-09T09:11:58.345Z,91.20
2019-05-09T09:14:28.024Z,90.90
2019-05-09T09:16:57.730Z,91.20
2019-05-09T09:19:28.062Z,91.10
2019-05-09T09:22:00.106Z,90.70
2019-05-09T09:24:28.318Z,90.30
2019-05-09T09:26:57.442Z,90.90
2019-05-09T09:29:28.349Z,90.70
2019-05-09T09:31:57.620Z,90.30
2019-05-09T09:34:27.769Z,90.30
2019-05-09T09:37:02.990Z,90.00
2019-05-09T09:39:27.541Z,90.20
2019-05-09T09:41:58.701Z,89.70
2019-05-09T09:44:28.785Z,89.60
2019-05-09T09:46:58.106Z,90.70
2019-05-09T09:49:29.325Z,90.40
2019-05-09T09:51:58.299Z,89.70
2019-05-09T09:54:28.120Z,90.60
2019-05-09T09:56:58.560Z,90.00
2019-05-09T09:59:28.930Z,90.20
2019-05-09T10:01:59.191Z,90.90
2019-05-09T10:04:28.422Z,91.30
2019-05-09T10:06:58.345Z,91.60
2019-05-09T10:09:27.228Z,91.80
2019-05-09T10:11:58.194Z,91.70
2019-05-09T10:14:28.424Z,91.80
2019-05-09T10:17:04.940Z,92.60
2019-05-09T10:19:51.459Z,92.60
2019-05-09T10:22:24.548Z,92.50
2019-05-09T10:24:51.904Z,92.70
2019-05-09T10:27:20.460Z,92.90
2019-05-09T10:29:49.029Z,92.50
2019-05-09T10:32:18.425Z,92.80
2019-05-09T10:34:48.877Z,92.60
2019-05-09T10:37:18.546Z,92.70
2019-05-09T10:39:49.095Z,93.20
2019-05-09T10:42:31.211Z,93.20
2019-05-09T10:45:18.111Z,93.00
2019-05-09T10:47:48.298Z,93.40
2019-05-09T10:50:18.413Z,93.10
2019-05-09T10:52:48.169Z,93.10
2019-05-09T10:55:17.866Z,93.10
2019-05-09T10:57:52.128Z,93.50
2019-05-09T11:00:18.453Z,93.50
2019-05-09T11:02:48.341Z,93.30
2019-05-09T11:05:18.454Z,93.50
2019-05-09T11:07:49.364Z,93.30
2019-05-09T11:10:25.929Z,93.50
2019-05-09T11:12:47.915Z,93.70
2019-05-09T11:15:17.753Z,93.90
2019-05-09T11:17:47.474Z,93.90
2019-05-09T11:20:19.088Z,93.80
2019-05-09T11:22:46.670Z,93.90
2019-05-09T11:25:15.298Z,93.80
2019-05-09T11:27:43.850Z,94.30
2019-05-09T11:30:13.254Z,94.00
2019-05-09T11:32:41.802Z,94.30
2019-05-09T11:35:10.690Z,94.30
2019-05-09T11:37:39.270Z,94.40
2019-05-09T11:40:08.355Z,94.70
2019-05-09T11:42:38.133Z,94.30
2019-05-09T11:45:08.205Z,94.20
2019-05-09T11:47:45.472Z,94.20
2019-05-09T11:50:08.849Z,94.40
2019-05-09T11:52:38.412Z,94.40
2019-05-09T11:55:27.228Z,94.50
2019-05-09T11:57:38.627Z,94.50
2019-05-09T12:00:09.482Z,94.20
2019-05-09T12:02:38.649Z,94.60
2019-05-09T12:05:08.766Z,94.50
2019-05-09T12:07:38.144Z,94.50
2019-05-09T12:10:10.440Z,94.80
2019-05-09T12:12:39.186Z,94.90
2019-05-09T12:15:09.053Z,94.60
2019-05-09T12:17:50.942Z,94.60
2019-05-09T12:20:13.074Z,94.60
2019-05-09T12:22:39.025Z,94.80
2019-05-09T12:25:08.660Z,94.70
2019-05-09T12:27:37.583Z,94.80
2019-05-09T12:30:08.491Z,94.90
2019-05-09T12:32:38.534Z,94.90
2019-05-09T12:35:08.894Z,94.80
2019-05-09T12:37:37.871Z,94.80
2019-05-09T12:40:08.315Z,94.80
2019-05-09T12:42:39.270Z,94.90
2019-05-09T12:45:09.115Z,95.10
2019-05-09T12:47:39.709Z,95.20
2019-05-09T12:50:08.790Z,95.10
2019-05-09T12:52:39.268Z,95.30
2019-05-09T12:55:08.659Z,95.20
2019-05-09T12:57:38.619Z,95.30
2019-05-09T13:00:10.852Z,95.20
2019-05-09T13:02:39.430Z,95.50
2019-05-09T13:05:08.352Z,95.50
2019-05-09T13:07:40.068Z,95.40
2019-05-09T13:10:08.969Z,95.50
2019-05-09T13:12:38.839Z,95.50
2019-05-09T13:15:08.931Z,95.80
2019-05-09T13:17:43.250Z,95.90
2019-05-09T13:20:14.088Z,95.80
2019-05-09T13:22:43.058Z,95.80
2019-05-09T13:25:11.751Z,95.70
2019-05-09T13:27:40.297Z,95.70
2019-05-09T13:30:10.994Z,95.70
2019-05-09T13:32:39.614Z,96.00
2019-05-09T13:35:08.471Z,95.90
2019-05-09T13:37:38.216Z,95.90
2019-05-09T13:40:08.581Z,96.00
2019-05-09T13:42:39.523Z,96.10
2019-05-09T13:45:08.487Z,96.10
2019-05-09T13:47:38.037Z,96.10
2019-05-09T13:50:08.826Z,95.90
2019-05-09T13:52:38.678Z,96.00
2019-05-09T13:55:08.832Z,96.20
2019-05-09T13:57:37.707Z,96.00
2019-05-09T14:00:08.796Z,96.10
2019-05-09T14:02:38.346Z,95.90
2019-05-09T14:05:09.190Z,95.90
2019-05-09T14:07:37.962Z,95.90
2019-05-09T14:10:10.224Z,95.80
2019-05-09T14:12:38.657Z,95.60
2019-05-09T14:15:08.586Z,95.80
2019-05-09T14:17:48.214Z,95.30
2019-05-09T14:20:08.875Z,95.30
2019-05-09T14:22:38.591Z,95.60
2019-05-09T14:25:11.261Z,95.60
2019-05-09T14:27:37.743Z,95.60
2019-05-09T14:30:08.070Z,95.50
2019-05-09T14:32:39.800Z,95.70
2019-05-09T14:35:08.524Z,95.30
2019-05-09T14:37:38.885Z,95.50
2019-05-09T14:40:10.074Z,95.50
2019-05-09T14:42:39.504Z,95.50
2019-05-09T14:45:08.511Z,95.30
2019-05-09T14:47:41.963Z,95.60
2019-05-09T14:50:09.958Z,95.50
2019-05-09T14:52:58.405Z,95.10
2019-05-09T14:55:28.617Z,95.30
2019-05-09T14:57:57.923Z,95.20
2019-05-09T15:00:26.776Z,95.20
2019-05-09T15:02:57.886Z,95.20
2019-05-09T15:05:27.751Z,95.30
2019-05-09T15:07:58.970Z,95.10
2019-05-09T15:10:26.273Z,95.20
2019-05-09T15:12:55.047Z,95.30
2019-05-09T15:15:23.723Z,95.30
2019-05-09T15:17:52.274Z,95.00
2019-05-09T15:20:20.834Z,95.10
2019-05-09T15:22:49.397Z,95.30
2019-05-09T15:25:19.338Z,95.00
2019-05-09T15:27:48.154Z,94.80
2019-05-09T15:30:18.705Z,94.90
2019-05-09T15:32:47.576Z,94.90
2019-05-09T15:35:18.322Z,95.10
2019-05-09T15:37:48.061Z,94.90
2019-05-09T15:40:17.800Z,94.80
2019-05-09T15:42:47.890Z,94.60
2019-05-09T15:45:18.248Z,94.90
2019-05-09T15:47:48.252Z,95.00
2019-05-09T15:50:22.857Z,94.90
2019-05-09T15:52:48.123Z,94.80
2019-05-09T15:55:18.732Z,94.80
2019-05-09T15:57:48.567Z,94.60
2019-05-09T16:00:19.094Z,94.70
2019-05-09T16:02:48.529Z,94.40
2019-05-09T16:05:18.138Z,94.50
2019-05-09T16:07:49.913Z,94.80
2019-05-09T16:10:18.642Z,94.60
2019-05-09T16:12:48.619Z,94.50
2019-05-09T16:15:18.455Z,94.50
2019-05-09T16:17:50.424Z,94.40
2019-05-09T16:20:36.029Z,94.40
2019-05-09T16:22:50.103Z,94.40
2019-05-09T16:25:19.043Z,94.20
2019-05-09T16:27:48.587Z,94.20
2019-05-09T16:30:17.611Z,94.20
2019-05-09T16:32:48.030Z,93.60
2019-05-09T16:35:18.212Z,92.90
2019-05-09T16:38:00.799Z,92.40
2019-05-09T16:40:17.899Z,92.60
2019-05-09T16:42:47.529Z,92.20
2019-05-09T16:45:21.261Z,92.70
2019-05-09T16:47:51.906Z,92.40
2019-05-09T16:50:21.471Z,92.40
2019-05-09T16:52:50.038Z,92.80
2019-05-09T16:55:30.965Z,92.40
2019-05-09T16:58:00.651Z,92.60
2019-05-09T17:00:32.396Z,92.30
2019-05-09T17:03:00.962Z,92.40
2019-05-09T17:05:29.746Z,92.40
2019-05-09T17:07:58.864Z,92.50
2019-05-09T17:10:27.443Z,92.10
2019-05-09T17:13:00.039Z,92.10
2019-05-09T17:15:29.874Z,91.60
2019-05-09T17:17:58.605Z,85.50
2019-05-09T17:20:35.125Z,80.60
2019-05-09T17:23:13.461Z,79.30
2019-05-09T17:25:38.497Z,81.90
2019-05-09T17:28:07.354Z,84.60
2019-05-09T17:30:38.376Z,87.70
2019-05-09T17:33:07.940Z,88.30
2019-05-09T17:35:38.687Z,88.70
2019-05-09T17:38:08.630Z,90.20
2019-05-09T17:40:38.991Z,91.00
2019-05-09T17:43:08.275Z,91.10
2019-05-09T17:45:49.194Z,91.10
2019-05-09T17:48:20.261Z,91.20
2019-05-09T17:50:53.481Z,91.40
2019-05-09T17:53:22.094Z,91.60
2019-05-09T17:55:50.646Z,91.80
2019-05-09T17:58:29.261Z,91.60
2019-05-09T18:00:49.960Z,91.60
2019-05-09T18:03:19.306Z,91.70
2019-05-09T18:05:49.368Z,92.00
2019-05-09T18:08:23.372Z,92.20
2019-05-09T18:10:58.363Z,92.10
2019-05-09T18:13:30.444Z,91.80
2019-05-09T18:15:58.040Z,91.20
2019-05-09T18:18:28.389Z,91.30
2019-05-09T18:20:58.089Z,92.10
2019-05-09T18:23:28.327Z,92.30
2019-05-09T18:25:58.558Z,92.50
2019-05-09T18:28:29.311Z,92.70
2019-05-09T18:30:58.555Z,93.00
2019-05-09T18:33:44.845Z,93.20
2019-05-09T18:36:13.601Z,93.30
2019-05-09T18:38:44.741Z,93.40
2019-05-09T18:41:18.701Z,93.50
2019-05-09T18:43:51.989Z,93.60
2019-05-09T18:46:21.725Z,93.70
2019-05-09T18:48:50.842Z,93.80
2019-05-09T18:51:19.413Z,94.00
2019-05-09T18:53:47.989Z,94.20
2019-05-09T18:56:23.363Z,94.50
2019-05-09T18:58:53.447Z,94.70
2019-05-09T19:01:22.042Z,94.70
2019-05-09T19:03:50.654Z,94.80
2019-05-09T19:06:19.684Z,94.80
2019-05-09T19:08:48.823Z,94.90
2019-05-09T19:11:17.655Z,95.10
2019-05-09T19:13:46.291Z,95.00
2019-05-09T19:16:16.463Z,95.10
2019-05-09T19:19:50.034Z,95.20
2019-05-09T19:22:22.489Z,95.30
2019-05-09T19:24:48.781Z,95.40
2019-05-09T19:27:17.351Z,95.40
2019-05-09T19:29:46.496Z,95.40
2019-05-09T19:32:16.593Z,95.40
2019-05-09T19:34:45.211Z,95.50
2019-05-09T19:37:13.810Z,95.60
2019-05-09T19:39:52.548Z,95.70
2019-05-09T19:42:24.066Z,95.80
2019-05-09T19:44:56.676Z,95.90
2019-05-09T19:47:31.849Z,96.00
2019-05-09T19:50:05.005Z,95.90
2019-05-09T19:52:38.186Z,96.00
2019-05-09T19:55:09.255Z,95.90
2019-05-09T19:57:44.609Z,95.80
2019-05-09T20:00:35.703Z,95.80
2019-05-09T20:03:04.833Z,95.90
2019-05-09T20:05:33.355Z,95.70
2019-05-09T20:08:02.390Z,95.70
2019-05-09T20:10:48.558Z,95.70
2019-05-09T20:15:26.857Z,95.70
2019-05-09T20:19:56.353Z,95.70
2019-05-09T20:22:25.044Z,95.80
2019-05-09T20:24:53.642Z,95.80
2019-05-09T20:27:22.236Z,95.80
2019-05-09T20:29:50.867Z,95.90
2019-05-09T20:32:19.877Z,95.80
2019-05-09T20:34:48.444Z,95.80
2019-05-09T20:37:17.006Z,95.70
2019-05-09T20:39:45.771Z,95.70
2019-05-09T20:42:14.503Z,95.70
2019-05-09T20:44:43.499Z,95.70
2019-05-09T20:47:12.243Z,95.70
2019-05-09T20:49:40.978Z,95.60
2019-05-09T20:52:09.944Z,95.70
2019-05-09T20:54:38.662Z,95.50
2019-05-09T20:57:07.395Z,95.60
2019-05-09T20:59:36.176Z,95.70
2019-05-09T21:02:05.043Z,95.70
2019-05-09T21:04:33.786Z,95.80
2019-05-09T21:07:02.613Z,95.90
2019-05-09T21:09:31.343Z,95.90
2019-05-09T21:12:00.089Z,95.90
2019-05-09T21:14:29.343Z,96.00
2019-05-09T21:16:58.109Z,96.10
2019-05-09T21:19:31.238Z,96.00
2019-05-09T21:21:59.988Z,96.10
2019-05-09T21:24:28.793Z,96.10
2019-05-09T21:26:57.495Z,96.10
2019-05-09T21:29:26.881Z,96.20
2019-05-09T21:31:55.674Z,96.20
2019-05-09T21:34:24.398Z,96.30
2019-05-09T21:36:53.017Z,96.30
2019-05-09T21:39:23.102Z,96.60
2019-05-09T21:41:51.674Z,96.40
2019-05-09T21:44:20.309Z,96.40
2019-05-09T21:46:48.858Z,96.40
2019-05-09T21:49:17.426Z,96.40
2019-05-09T21:51:45.996Z,96.40
2019-05-09T21:54:14.558Z,96.40
2019-05-09T21:56:43.123Z,96.40
2019-05-09T21:59:11.752Z,96.40
2019-05-09T22:01:41.513Z,96.40
2019-05-09T22:04:10.050Z,96.50
2019-05-09T22:06:38.546Z,96.50
2019-05-09T22:09:09.775Z,96.50
2019-05-09T22:11:39.195Z,96.50
2019-05-09T22:14:07.753Z,96.60
2019-05-09T22:16:36.367Z,96.70
2019-05-09T22:19:05.070Z,96.70
2019-05-09T22:21:33.695Z,96.70
2019-05-09T22:24:02.329Z,96.80
2019-05-09T22:26:30.907Z,96.80
2019-05-09T22:28:59.454Z,96.80
2019-05-09T22:31:28.053Z,96.80
2019-05-09T22:33:56.667Z,96.80
2019-05-09T22:36:25.293Z,96.90
2019-05-09T22:38:53.847Z,96.90
2019-05-09T22:41:22.410Z,96.90
2019-05-09T22:43:50.958Z,96.90
2019-05-09T22:46:19.595Z,96.90
2019-05-09T22:48:48.163Z,96.80
2019-05-09T22:51:16.774Z,96.90
2019-05-09T22:53:45.332Z,96.90
2019-05-09T22:56:13.968Z,96.90
2019-05-09T22:58:42.516Z,97.00
2019-05-09T23:01:11.071Z,97.00
2019-05-09T23:03:39.909Z,97.10
2019-05-09T23:06:08.452Z,97.00
2019-05-09T23:08:37.067Z,97.00
2019-05-09T23:11:05.665Z,97.00
2019-05-09T23:13:35.846Z,96.90
2019-05-09T23:16:04.538Z,97.00
2019-05-09T23:18:33.107Z,96.90
2019-05-09T23:21:01.675Z,96.90
2019-05-09T23:23:37.604Z,96.90
2019-05-09T23:26:06.277Z,96.90
2019-05-09T23:28:34.907Z,96.90
2019-05-09T23:31:05.086Z,96.90
2019-05-09T23:33:35.274Z,97.00
2019-05-09T23:36:03.829Z,97.10
2019-05-09T23:38:32.383Z,97.20
2019-05-09T23:41:00.971Z,97.30
2019-05-09T23:43:29.528Z,97.40
2019-05-09T23:45:58.091Z,97.40
2019-05-09T23:48:27.252Z,97.50
2019-05-09T23:50:55.809Z,97.50
2019-05-09T23:53:31.754Z,97.60
2019-05-09T23:56:18.010Z,97.70
2019-05-09T23:59:04.256Z,97.80
